EFHKEFOU

Guest
Details From EFHK - Helsinki Vantaa
To EFOU - Oulu
Flight Number -
Tags Decoded
Created
Modified
Stats Distance 277 nm / 513 km
Max Altitude 0 ft / 0 m
Waypoints 2
Social Downloads 2
Likes 0
Share VATSIM

Download

Looking for another format? Having issues loading an existing format? Contact us
Advertisement - Login to hide

Notes

Decoded

Route

EFHK EFOU

ID Type Via Altitude Latitude Longitude Leg Dist Tot Dist Heading (true) Name
O EFHK APT - 0 ft / 0 m 60.33028˚ 24.96450˚ - 0 nm - -
O EFOU APT - 0 ft / 0 m 64.93584˚ 25.33189˚ 276 nm 276 nm 2° / 2° -

Altitude Profile

Advertisement - Login to hide

Weather


0- 5 10 15 20 25 30 35+ Temperature / ° C

Clouds and Precipitation
Forecast for 2017-12-13 18:00 UTC. Updated 2 hours ago

Ground ~20,000 ft ~40,000 ft Winds

EFHK

Details ICAO EFHK (HEL)
Name Helsinki Vantaa
Region Finland
Timezone Europe/Helsinki (UTC+2.0)
Stats Elevation 179 ft / 55 m (AMSL)
Location 60.320569° 24.952668°
Runways 3
Magnetic Variation 8.953° E

METAR

EFHK 131820Z 21010KT 9999 -RA SCT009 BKN013 02/01 Q0997 NOSIG

Decode

TAF

TAF TAF EFHK 131724Z 1318/1418 20013KT 9999 SCT006 BKN020 TEMPO 1318/1401 6000 -SHRASN BKN006 SCT035CB

Decode

Departure Runways

ID Width Length Bearing (true) Bearing (mag) Surface Threshold Offset Overrun Length
04L 197 ft / 60 m 9,817 ft / 2,992 m 47.43° 38.48° Asphalt 800 ft / 244 m 0 ft / 0 m
04R 197 ft / 60 m 10,472 ft / 3,192 m 47.46° 38.51° Asphalt 262 ft / 80 m 0 ft / 0 m
15 197 ft / 60 m 9,497 ft / 2,895 m 153.08° 144.13° Asphalt 0 ft / 0 m 198 ft / 60 m
22L 197 ft / 60 m 10,472 ft / 3,192 m 227.50° 218.55° Asphalt 0 ft / 0 m 197 ft / 60 m
22R 197 ft / 60 m 9,817 ft / 2,992 m 227.46° 218.51° Asphalt 912 ft / 278 m 0 ft / 0 m
33 197 ft / 60 m 9,497 ft / 2,895 m 333.10° 324.15° Asphalt 0 ft / 0 m 197 ft / 60 m

EFOU

Details ICAO EFOU (OUL)
Name Oulu
Region Finland
Timezone Europe/Helsinki (UTC+2.0)
Stats Elevation 47 ft / 14 m (AMSL)
Location 64.930059° 25.354560°
Runways 1
Magnetic Variation 10.661° E

METAR

EFOU 131820Z AUTO 20007KT 9999 -SN OVC010 M03/M04 Q0985

Decode

TAF

TAF EFOU 131738Z 1318/1418 20010KT 8000 -SN BKN015 TEMPO 1318/1406 4000 -SN BKN009 PROB40 1318/1406 -FZDZ TEMPO 1406/1413 4000 -SNRA BKN008

Decode

Destination Runways

ID Width Length Bearing (true) Bearing (mag) Surface Threshold Offset Overrun Length
12 197 ft / 60 m 8,180 ft / 2,493 m 121.01° 110.35° Asphalt 0 ft / 0 m 200 ft / 61 m
30 197 ft / 60 m 8,180 ft / 2,493 m 301.05° 290.39° Asphalt 0 ft / 0 m 200 ft / 61 m

Approach Navaids

Runway Type Ident Frequency Range Bearing (true) Bearing (mag) Slope Elevation
12 Localiser OU 109.50 MHz 18 nm / 33 km 121.06° 110.40° - 47 ft / 14 m (AMSL)
12 Glidescope OU 109.50 MHz 10 nm / 19 km 121.03° 110.37° 3.00° 47 ft / 14 m (AMSL)
12 DME OU 109.50 MHz 18 nm / 33 km - - - 100 ft / 30 m (AMSL)

Popular Alternatives